Time;durP1;ratioP1;P1;durP2;ratioP2;P2;SDS_P1;SDS_P2;PMS_P1;PMS_P2;Temp;Humidity;BMP_temperature;BMP_pressure;BME280_temperature;BME280_humidity;BME280_pressure;Samples;Min_cycle;Max_cycle;Signal;HPM_P1;HPM_P2
2020/12/20 00:02:04;;;;;;;18.92;9.13;;;9.60;91.30;;;;;;5062038;28;20075;-83
2020/12/20 00:04:30;;;;;;;15.73;8.50;;;9.60;91.30;;;;;;5063032;28;20082;-83
2020/12/20 00:06:55;;;;;;;18.65;8.55;;;9.60;91.20;;;;;;5068331;28;20474;-84
2020/12/20 00:09:22;;;;;;;18.02;8.43;;;9.60;91.10;;;;;;5063034;28;20367;-84
2020/12/20 00:11:50;;;;;;;19.92;8.15;;;9.60;91.10;;;;;;5066752;28;20343;-84
2020/12/20 00:14:29;;;;;;;15.07;7.70;;;9.60;90.90;;;;;;5062481;28;20028;-84
2020/12/20 00:16:58;;;;;;;18.33;7.90;;;9.70;90.80;;;;;;5064178;28;20028;-85
2020/12/20 00:19:24;;;;;;;14.95;7.80;;;9.70;90.50;;;;;;5064849;28;20033;-84
2020/12/20 00:21:58;;;;;;;21.10;7.70;;;9.70;90.50;;;;;;5065855;28;20028;-84
2020/12/20 00:24:24;;;;;;;15.18;7.68;;;9.70;90.60;;;;;;5063695;28;20128;-84
2020/12/20 00:26:50;;;;;;;14.95;7.45;;;9.60;90.60;;;;;;5067782;28;20103;-84
2020/12/20 00:29:15;;;;;;;17.38;7.15;;;9.70;90.50;;;;;;5065472;28;20283;-84
2020/12/20 00:31:41;;;;;;;16.13;7.63;;;9.70;90.50;;;;;;5067525;28;20435;-84
2020/12/20 00:34:07;;;;;;;19.33;6.85;;;9.60;90.50;;;;;;5065460;28;20027;-84
2020/12/20 00:36:33;;;;;;;16.35;6.90;;;9.70;90.40;;;;;;5066028;28;20032;-84
2020/12/20 00:38:59;;;;;;;16.00;7.22;;;9.70;90.30;;;;;;5067381;28;20024;-82
2020/12/20 00:41:24;;;;;;;18.10;6.80;;;9.70;90.30;;;;;;5065414;28;20036;-82
2020/12/20 00:43:50;;;;;;;16.50;6.65;;;9.60;90.20;;;;;;5063157;28;20024;-84
2020/12/20 00:46:16;;;;;;;19.52;6.88;;;9.70;90.20;;;;;;5066796;28;20450;-84
2020/12/20 00:48:42;;;;;;;17.88;6.60;;;9.70;90.20;;;;;;5062311;28;20078;-84
2020/12/20 00:51:09;;;;;;;19.73;6.82;;;9.70;90.10;;;;;;5056999;28;20419;-84
2020/12/20 00:53:37;;;;;;;22.33;7.38;;;9.70;90.30;;;;;;5050669;28;20029;-83
2020/12/20 00:56:03;;;;;;;20.40;6.72;;;9.70;90.20;;;;;;5045573;28;20028;-84
2020/12/20 00:58:29;;;;;;;17.25;6.85;;;9.70;90.20;;;;;;5044309;28;20036;-84
2020/12/20 01:00:55;;;;;;;18.08;6.72;;;9.70;90.10;;;;;;5045503;28;20032;-84
2020/12/20 01:03:21;;;;;;;15.45;6.78;;;9.70;90.10;;;;;;5046777;28;20037;-84
2020/12/20 01:05:47;;;;;;;19.55;6.63;;;9.80;89.90;;;;;;5048635;28;20055;-83
2020/12/20 01:08:12;;;;;;;16.05;6.75;;;9.80;89.80;;;;;;5043387;28;20035;-84
2020/12/20 01:10:38;;;;;;;17.48;5.95;;;9.80;89.70;;;;;;5045211;28;20021;-84
2020/12/20 01:13:04;;;;;;;25.42;7.35;;;9.70;89.80;;;;;;5045202;28;20053;-84
2020/12/20 01:15:30;;;;;;;19.48;7.45;;;9.70;89.80;;;;;;5066072;28;20430;-83
2020/12/20 01:17:56;;;;;;;16.33;5.95;;;9.70;89.90;;;;;;5065681;28;20040;-84
2020/12/20 01:20:23;;;;;;;15.40;6.53;;;9.60;89.90;;;;;;5064916;28;20104;-84
2020/12/20 01:22:49;;;;;;;22.55;6.38;;;9.60;89.90;;;;;;5065330;28;20036;-83
2020/12/20 01:25:15;;;;;;;16.50;6.25;;;9.60;89.90;;;;;;5065685;28;20078;-85
2020/12/20 01:27:41;;;;;;;16.95;6.03;;;9.60;90.00;;;;;;5064906;28;20021;-84
2020/12/20 01:30:07;;;;;;;19.75;5.75;;;9.50;90.00;;;;;;5059282;28;20023;-83
2020/12/20 01:32:32;;;;;;;17.42;5.70;;;9.50;89.90;;;;;;5057341;28;20028;-84
2020/12/20 01:34:58;;;;;;;18.42;6.28;;;9.50;90.00;;;;;;5060605;28;20025;-84
2020/12/20 01:37:24;;;;;;;17.17;5.68;;;9.50;90.10;;;;;;5065015;28;20413;-83
2020/12/20 01:39:49;;;;;;;19.95;6.20;;;9.50;90.10;;;;;;5062524;28;20052;-85
2020/12/20 01:42:15;;;;;;;14.98;5.80;;;9.50;90.00;;;;;;5062945;28;20036;-84
2020/12/20 01:44:41;;;;;;;16.73;6.03;;;9.50;89.90;;;;;;5067433;28;20025;-84
2020/12/20 01:47:08;;;;;;;19.92;7.50;;;9.50;90.00;;;;;;5050265;28;20059;-84
2020/12/20 01:49:34;;;;;;;15.60;6.00;;;9.50;89.90;;;;;;5059218;28;20053;-84
2020/12/20 01:52:00;;;;;;;18.27;6.38;;;9.50;89.80;;;;;;5077019;28;20079;-82
2020/12/20 01:54:26;;;;;;;18.98;6.43;;;9.50;89.80;;;;;;5064310;28;20048;-85
2020/12/20 01:56:52;;;;;;;18.40;6.57;;;9.50;89.80;;;;;;5057509;28;20632;-84
2020/12/20 01:59:17;;;;;;;16.88;6.25;;;9.50;89.70;;;;;;5048114;28;20124;-84
2020/12/20 02:01:43;;;;;;;16.55;5.43;;;9.40;89.90;;;;;;5074966;28;20029;-84
2020/12/20 02:04:09;;;;;;;18.95;5.95;;;9.40;90.00;;;;;;5070065;28;20040;-84
2020/12/20 02:06:36;;;;;;;19.17;5.82;;;9.40;89.90;;;;;;5060234;28;20036;-84
2020/12/20 02:09:01;;;;;;;17.35;5.70;;;9.40;90.10;;;;;;5054715;28;20429;-82
2020/12/20 02:11:27;;;;;;;22.48;6.03;;;9.40;90.00;;;;;;5059745;28;20111;-84
2020/12/20 02:13:53;;;;;;;17.95;5.78;;;9.30;90.10;;;;;;5059326;28;20032;-84
2020/12/20 02:16:20;;;;;;;15.93;5.35;;;9.30;90.30;;;;;;5059469;28;20773;-84
2020/12/20 02:18:47;;;;;;;16.80;5.15;;;9.40;90.30;;;;;;5065760;28;20419;-84
2020/12/20 02:21:14;;;;;;;17.08;5.72;;;9.30;90.20;;;;;;5064344;28;20028;-84
2020/12/20 02:23:47;;;;;;;19.25;5.43;;;9.30;90.00;;;;;;5061159;28;20050;-85
2020/12/20 02:26:14;;;;;;;15.23;5.40;;;9.30;90.20;;;;;;5057497;28;20367;-84
2020/12/20 02:28:40;;;;;;;17.52;5.40;;;9.30;90.20;;;;;;5061287;28;20024;-84
2020/12/20 02:31:06;;;;;;;18.40;5.75;;;9.30;90.20;;;;;;5060040;28;20094;-84
2020/12/20 02:33:33;;;;;;;18.95;5.65;;;9.20;90.20;;;;;;5065494;28;20469;-83
2020/12/20 02:35:59;;;;;;;18.20;6.25;;;9.20;90.40;;;;;;5063366;28;20028;-82
2020/12/20 02:38:26;;;;;;;20.13;6.50;;;9.20;90.40;;;;;;5062956;28;20433;-84
2020/12/20 02:40:52;;;;;;;19.20;6.25;;;9.20;90.40;;;;;;5057771;28;20017;-84
2020/12/20 02:43:18;;;;;;;18.55;5.35;;;9.10;90.30;;;;;;5069068;28;20034;-83
2020/12/20 02:45:44;;;;;;;17.58;5.50;;;9.10;90.40;;;;;;5061666;28;20116;-84
2020/12/20 02:48:09;;;;;;;18.77;5.97;;;9.10;90.40;;;;;;5060589;28;20025;-84
2020/12/20 02:50:35;;;;;;;18.08;5.38;;;9.10;90.50;;;;;;5039774;28;21009;-84
2020/12/20 02:53:01;;;;;;;17.65;5.75;;;9.10;90.60;;;;;;5041805;28;20037;-84
2020/12/20 02:55:27;;;;;;;16.75;5.28;;;9.10;90.60;;;;;;5047830;28;20032;-84
2020/12/20 02:57:52;;;;;;;18.70;6.15;;;9.10;90.50;;;;;;5050937;28;20034;-85
2020/12/20 03:00:19;;;;;;;18.02;6.32;;;9.10;90.50;;;;;;5042728;28;20044;-84
2020/12/20 03:02:45;;;;;;;22.40;5.60;;;9.10;90.60;;;;;;5039041;28;20040;-85
2020/12/20 03:05:10;;;;;;;23.90;5.85;;;9.00;90.70;;;;;;5034974;28;20021;-84
2020/12/20 03:07:36;;;;;;;21.38;6.53;;;9.00;90.60;;;;;;5042545;28;20129;-84
2020/12/20 03:10:04;;;;;;;21.48;5.75;;;9.00;90.60;;;;;;5047502;28;20124;-84
2020/12/20 03:12:30;;;;;;;22.88;5.97;;;9.00;90.70;;;;;;5041044;28;20029;-84
2020/12/20 03:14:55;;;;;;;16.05;5.53;;;8.90;90.70;;;;;;5048951;28;20036;-84
2020/12/20 03:17:21;;;;;;;18.08;5.32;;;8.90;90.70;;;;;;5044961;28;20029;-84
2020/12/20 03:19:48;;;;;;;24.08;6.28;;;8.90;90.70;;;;;;5048056;28;20037;-84
2020/12/20 03:22:14;;;;;;;21.77;5.07;;;8.80;90.90;;;;;;5046721;28;20471;-85
2020/12/20 03:24:41;;;;;;;19.50;5.63;;;8.80;90.90;;;;;;5054595;28;20021;-84
2020/12/20 03:27:06;;;;;;;19.25;6.35;;;8.80;91.00;;;;;;5062613;28;20040;-84
2020/12/20 03:29:32;;;;;;;19.30;5.95;;;8.80;91.10;;;;;;5058106;28;20033;-84
2020/12/20 03:31:57;;;;;;;19.65;5.35;;;8.70;91.20;;;;;;5047648;28;20021;-85
2020/12/20 03:34:23;;;;;;;21.25;6.03;;;8.70;91.20;;;;;;5037113;28;20109;-85
2020/12/20 03:36:49;;;;;;;15.05;5.20;;;8.70;91.30;;;;;;5040876;28;20021;-84
2020/12/20 03:39:14;;;;;;;19.30;6.45;;;8.70;91.30;;;;;;5040816;28;20021;-83
2020/12/20 03:41:40;;;;;;;24.73;5.35;;;8.70;91.30;;;;;;5047977;28;20025;-85
2020/12/20 03:44:06;;;;;;;18.33;5.03;;;8.70;91.30;;;;;;5041849;28;20522;-84
2020/12/20 03:46:31;;;;;;;23.30;6.07;;;8.70;91.40;;;;;;5048565;28;20466;-84
2020/12/20 03:48:57;;;;;;;19.67;6.00;;;8.60;91.40;;;;;;5039430;28;20024;-84
2020/12/20 03:51:22;;;;;;;20.20;6.13;;;8.70;91.70;;;;;;5040443;28;20110;-83
2020/12/20 03:53:48;;;;;;;21.10;5.53;;;8.60;91.70;;;;;;5041770;28;20396;-85
2020/12/20 03:56:14;;;;;;;24.10;5.93;;;8.60;91.80;;;;;;5043435;28;20152;-84
2020/12/20 03:58:39;;;;;;;19.83;5.63;;;8.60;91.70;;;;;;5037765;28;20025;-85
2020/12/20 04:01:05;;;;;;;22.92;5.45;;;8.60;91.70;;;;;;5043635;28;20116;-84
2020/12/20 04:03:30;;;;;;;24.17;5.65;;;8.70;91.70;;;;;;5043683;28;20494;-85
2020/12/20 04:05:56;;;;;;;17.42;5.03;;;8.60;91.60;;;;;;5044743;28;20032;-85
2020/12/20 04:08:21;;;;;;;21.77;6.05;;;8.60;91.60;;;;;;5046483;28;20498;-83
2020/12/20 04:10:47;;;;;;;20.50;6.45;;;8.60;91.70;;;;;;5053240;28;20478;-84
2020/12/20 04:13:13;;;;;;;39.05;8.35;;;8.70;91.70;;;;;;5039173;28;20074;-83
2020/12/20 04:15:38;;;;;;;22.52;5.72;;;8.60;91.70;;;;;;5037108;28;20789;-86
2020/12/20 04:18:04;;;;;;;17.42;5.68;;;8.60;91.70;;;;;;5042029;28;20368;-85
2020/12/20 04:20:30;;;;;;;19.02;5.80;;;8.60;91.70;;;;;;5038370;28;20048;-84
2020/12/20 04:22:55;;;;;;;24.55;6.45;;;8.60;91.80;;;;;;5054763;28;20498;-83
2020/12/20 04:25:21;;;;;;;23.63;6.13;;;8.60;91.80;;;;;;5055638;28;20050;-82
2020/12/20 04:27:48;;;;;;;18.90;5.45;;;8.60;91.80;;;;;;5068659;28;20033;-85
2020/12/20 04:30:14;;;;;;;17.38;5.75;;;8.70;91.70;;;;;;5055594;28;20021;-84
2020/12/20 04:32:40;;;;;;;19.27;5.85;;;8.60;91.70;;;;;;5046341;28;20476;-84
2020/12/20 04:35:06;;;;;;;21.38;5.88;;;8.60;91.80;;;;;;5041862;28;20036;-84
2020/12/20 04:37:31;;;;;;;19.50;5.70;;;8.60;91.70;;;;;;5049783;28;20048;-85
2020/12/20 04:39:57;;;;;;;20.23;6.35;;;8.60;91.70;;;;;;5058380;28;20049;-85
2020/12/20 04:42:24;;;;;;;20.70;5.68;;;8.60;91.90;;;;;;5067031;28;20021;-83
2020/12/20 04:44:49;;;;;;;16.25;5.75;;;8.60;91.90;;;;;;5061731;28;20485;-84
2020/12/20 04:47:16;;;;;;;23.13;6.20;;;8.50;91.90;;;;;;5059532;28;20199;-85
2020/12/20 04:49:44;;;;;;;22.13;5.82;;;8.50;92.00;;;;;;5067370;28;20025;-84
2020/12/20 04:52:10;;;;;;;24.05;6.40;;;8.50;92.00;;;;;;5065731;28;20037;-84
2020/12/20 04:54:38;;;;;;;26.17;6.57;;;8.50;92.10;;;;;;5065126;28;20028;-85
2020/12/20 04:57:06;;;;;;;23.98;6.43;;;8.50;92.20;;;;;;5054932;28;20371;-84
2020/12/20 04:59:33;;;;;;;19.80;6.50;;;8.50;92.20;;;;;;5057984;28;20028;-85
2020/12/20 05:01:59;;;;;;;24.67;6.47;;;8.50;92.10;;;;;;5063263;28;20016;-83
2020/12/20 05:04:24;;;;;;;22.13;5.82;;;8.50;92.20;;;;;;5060618;28;20501;-85
2020/12/20 05:06:50;;;;;;;21.83;6.45;;;8.40;92.20;;;;;;5059382;28;20094;-85
2020/12/20 05:09:15;;;;;;;19.05;6.35;;;8.50;92.30;;;;;;5040864;28;20049;-85
2020/12/20 05:11:41;;;;;;;21.17;6.72;;;8.40;92.20;;;;;;5041380;28;20037;-84
2020/12/20 05:14:08;;;;;;;23.20;6.10;;;8.40;92.10;;;;;;5041733;28;20030;-82
2020/12/20 05:16:38;;;;;;;19.00;5.40;;;8.40;92.20;;;;;;5047043;28;20057;-85
2020/12/20 05:19:06;;;;;;;21.70;6.22;;;8.40;92.20;;;;;;5043964;28;20104;-85
2020/12/20 05:21:33;;;;;;;23.67;6.05;;;8.30;92.30;;;;;;5034194;28;20041;-85
2020/12/20 05:24:00;;;;;;;16.23;5.88;;;8.30;92.30;;;;;;5047849;28;20040;-85
2020/12/20 05:26:30;;;;;;;28.60;7.93;;;8.30;92.40;;;;;;5061794;28;20036;-85
2020/12/20 05:29:14;;;;;;;19.20;5.63;;;8.20;92.40;;;;;;5061489;28;20032;-85
2020/12/20 05:31:41;;;;;;;20.92;6.47;;;8.30;92.50;;;;;;5059473;28;20122;-84
2020/12/20 05:34:07;;;;;;;19.83;6.07;;;8.30;92.40;;;;;;5036783;28;20107;-85
2020/12/20 05:36:32;;;;;;;21.52;6.38;;;8.20;92.50;;;;;;5045400;28;20110;-84
2020/12/20 05:39:19;;;;;;;23.60;7.43;;;8.20;92.60;;;;;;5041436;28;20422;-85
2020/12/20 05:41:46;;;;;;;17.17;5.78;;;8.20;92.60;;;;;;5057188;28;20028;-86
2020/12/20 05:44:25;;;;;;;18.15;6.80;;;8.20;92.60;;;;;;5040513;28;20472;-84
2020/12/20 05:46:50;;;;;;;19.92;6.50;;;8.20;92.70;;;;;;5042584;28;20036;-85
2020/12/20 05:49:21;;;;;;;21.92;6.18;;;8.20;92.60;;;;;;5055262;28;20415;-85
2020/12/20 05:52:07;;;;;;;19.92;6.13;;;8.20;92.50;;;;;;5057211;28;20035;-83
2020/12/20 05:54:38;;;;;;;26.77;7.15;;;8.20;92.60;;;;;;5055719;28;20037;-85
2020/12/20 05:57:07;;;;;;;22.35;6.25;;;8.20;92.60;;;;;;5057807;28;20025;-85
2020/12/20 05:59:33;;;;;;;21.15;5.55;;;8.20;92.60;;;;;;5059104;28;20120;-85
2020/12/20 06:02:04;;;;;;;24.23;6.60;;;8.20;92.60;;;;;;5056505;28;20017;-85
2020/12/20 06:04:31;;;;;;;25.42;6.53;;;8.10;92.60;;;;;;5068336;28;20166;-85
2020/12/20 06:06:58;;;;;;;21.13;6.70;;;8.10;92.60;;;;;;5056225;28;20109;-85
2020/12/20 06:09:28;;;;;;;24.00;6.38;;;8.10;92.70;;;;;;5053271;28;20037;-85
2020/12/20 06:11:55;;;;;;;25.33;6.85;;;8.10;92.70;;;;;;5063222;28;20028;-84
2020/12/20 06:14:28;;;;;;;20.98;6.65;;;8.10;92.70;;;;;;5057967;28;20087;-84
2020/12/20 06:17:15;;;;;;;20.80;6.38;;;8.10;92.70;;;;;;5059603;28;20033;-84
2020/12/20 06:19:48;;;;;;;19.15;6.57;;;8.10;92.70;;;;;;5058996;28;20483;-85
2020/12/20 06:22:19;;;;;;;24.33;6.07;;;8.10;92.70;;;;;;5063599;28;20033;-85
2020/12/20 06:24:50;;;;;;;26.23;8.20;;;8.00;92.80;;;;;;5067669;28;20473;-85
2020/12/20 06:27:17;;;;;;;23.42;8.07;;;8.00;92.90;;;;;;5065272;28;20026;-85
2020/12/20 06:29:48;;;;;;;23.88;7.53;;;8.00;93.00;;;;;;5058617;28;20493;-85
2020/12/20 06:32:19;;;;;;;22.00;7.60;;;7.90;92.90;;;;;;5061981;28;20537;-86
2020/12/20 06:34:45;;;;;;;25.00;8.20;;;7.90;93.00;;;;;;5056201;28;20032;-85
2020/12/20 06:37:12;;;;;;;25.95;8.10;;;7.90;93.00;;;;;;5065439;28;20021;-85
2020/12/20 06:39:39;;;;;;;26.58;8.85;;;7.90;93.00;;;;;;5084183;28;20028;-84
2020/12/20 06:42:05;;;;;;;18.48;7.63;;;7.90;93.10;;;;;;5064346;28;20017;-85
2020/12/20 06:44:31;;;;;;;23.52;7.03;;;7.90;93.10;;;;;;5065813;28;20043;-84
2020/12/20 06:46:56;;;;;;;22.85;7.55;;;7.90;93.10;;;;;;5059194;28;20093;-85
2020/12/20 06:49:35;;;;;;;23.88;7.57;;;7.90;93.10;;;;;;5065921;28;20040;-84
2020/12/20 06:52:22;;;;;;;28.60;9.48;;;7.80;93.00;;;;;;5066695;28;20219;-85
2020/12/20 06:55:15;;;;;;;24.55;7.72;;;7.80;93.10;;;;;;5053633;28;20040;-85
2020/12/20 06:58:03;;;;;;;24.10;8.23;;;7.80;93.10;;;;;;5060781;28;20048;-84
2020/12/20 07:00:48;;;;;;;26.15;7.57;;;7.80;93.20;;;;;;5064794;28;20041;-82
2020/12/20 07:03:23;;;;;;;26.98;7.05;;;7.70;93.30;;;;;;5065000;28;20043;-85
2020/12/20 07:05:50;;;;;;;27.83;8.40;;;7.70;93.40;;;;;;5063687;28;20021;-83
2020/12/20 07:08:27;;;;;;;28.35;8.90;;;7.70;93.30;;;;;;5068706;28;20512;-85
2020/12/20 07:11:00;;;;;;;25.08;8.50;;;7.70;93.40;;;;;;5068450;28;20371;-85
2020/12/20 07:13:37;;;;;;;26.70;8.32;;;7.80;93.50;;;;;;5057639;28;20028;-85
2020/12/20 07:16:14;;;;;;;25.40;9.18;;;7.80;93.50;;;;;;5056563;28;20460;-86
2020/12/20 07:18:56;;;;;;;27.20;8.63;;;7.70;93.40;;;;;;5067950;28;20052;-84
2020/12/20 07:21:27;;;;;;;27.92;8.55;;;7.70;93.50;;;;;;5062018;28;20032;-85
2020/12/20 07:23:53;;;;;;;27.33;8.32;;;7.70;93.50;;;;;;5067299;28;20032;-84
2020/12/20 07:26:20;;;;;;;27.17;9.48;;;7.70;93.50;;;;;;5065987;28;20563;-85
2020/12/20 07:28:45;;;;;;;31.00;9.32;;;7.70;93.60;;;;;;5066159;28;20028;-84
2020/12/20 07:31:19;;;;;;;27.40;9.88;;;7.70;93.60;;;;;;5065793;28;20036;-85
2020/12/20 07:33:45;;;;;;;29.80;9.18;;;7.70;93.70;;;;;;5064104;28;20103;-85
2020/12/20 07:36:11;;;;;;;26.60;9.52;;;7.70;93.70;;;;;;5065545;28;20036;-85
2020/12/20 07:38:37;;;;;;;25.90;9.40;;;7.70;93.70;;;;;;5063459;28;20036;-82
2020/12/20 07:41:12;;;;;;;27.63;9.50;;;7.60;93.70;;;;;;5068552;28;20025;-82
2020/12/20 07:43:38;;;;;;;24.13;9.45;;;7.60;93.60;;;;;;5065694;28;20044;-84
2020/12/20 07:46:09;;;;;;;25.63;9.45;;;7.60;93.70;;;;;;5067338;28;20127;-84
2020/12/20 07:48:35;;;;;;;24.85;9.75;;;7.60;93.70;;;;;;5066628;28;20421;-84
2020/12/20 07:51:20;;;;;;;23.00;9.48;;;7.60;93.80;;;;;;5066448;28;20033;-85
2020/12/20 07:53:55;;;;;;;32.45;10.50;;;7.60;93.80;;;;;;5066154;28;20062;-87
2020/12/20 07:56:33;;;;;;;25.17;10.07;;;7.60;93.80;;;;;;5060996;28;20591;-86
2020/12/20 07:59:02;;;;;;;29.02;10.13;;;7.60;93.80;;;;;;5067456;28;20374;-86
2020/12/20 08:01:28;;;;;;;29.80;10.35;;;7.60;93.80;;;;;;5061470;28;20036;-85
2020/12/20 08:04:05;;;;;;;25.52;10.10;;;7.60;93.90;;;;;;5066386;28;20093;-84
2020/12/20 08:06:33;;;;;;;26.20;10.90;;;7.70;93.90;;;;;;5063848;28;20068;-84
2020/12/20 08:09:13;;;;;;;24.75;11.10;;;7.70;93.80;;;;;;5066390;28;20020;-82
2020/12/20 08:11:40;;;;;;;22.40;9.93;;;7.70;93.80;;;;;;5066903;28;20052;-87
2020/12/20 08:14:08;;;;;;;28.75;10.07;;;7.70;93.70;;;;;;5063490;28;20028;-84
2020/12/20 08:16:36;;;;;;;27.15;9.65;;;7.70;93.70;;;;;;5059612;28;20131;-84
2020/12/20 08:19:19;;;;;;;30.33;10.30;;;7.80;93.70;;;;;;5067371;28;20387;-86
2020/12/20 08:22:11;;;;;;;27.05;9.35;;;7.80;93.70;;;;;;5065154;28;20107;-84
2020/12/20 08:24:40;;;;;;;30.15;10.95;;;7.80;93.70;;;;;;5066431;28;20041;-85
2020/12/20 08:27:18;;;;;;;27.90;10.10;;;7.80;93.70;;;;;;5064981;28;20020;-84
2020/12/20 08:29:45;;;;;;;27.42;9.95;;;7.90;93.70;;;;;;5065310;28;20032;-82
2020/12/20 08:32:16;;;;;;;29.17;9.45;;;7.90;93.70;;;;;;5064193;28;20471;-83
2020/12/20 08:34:42;;;;;;;28.38;10.02;;;7.90;93.60;;;;;;5056517;28;20054;-84
2020/12/20 08:37:09;;;;;;;23.90;9.82;;;8.00;93.50;;;;;;5062945;28;20024;-84
2020/12/20 08:39:35;;;;;;;24.30;9.30;;;8.00;93.40;;;;;;5062018;28;20104;-84
2020/12/20 08:42:03;;;;;;;24.75;9.70;;;8.00;93.30;;;;;;5068195;28;20111;-85
2020/12/20 08:44:29;;;;;;;21.10;8.30;;;8.10;93.30;;;;;;5065384;28;20033;-87
2020/12/20 08:47:04;;;;;;;27.95;9.82;;;8.10;93.20;;;;;;5058103;28;20075;-85
2020/12/20 08:49:30;;;;;;;29.42;9.68;;;8.10;93.10;;;;;;5065350;28;20431;-85
2020/12/20 08:52:05;;;;;;;25.45;8.93;;;8.10;93.10;;;;;;5076518;28;20028;-84
2020/12/20 08:54:31;;;;;;;26.35;9.18;;;8.20;93.00;;;;;;5088205;28;20017;-82
2020/12/20 08:57:07;;;;;;;24.67;8.35;;;8.20;93.00;;;;;;5083145;28;20051;-82
2020/12/20 08:59:44;;;;;;;21.75;8.68;;;8.30;92.80;;;;;;5067384;28;20333;-85
2020/12/20 09:02:23;;;;;;;26.77;9.45;;;8.40;92.60;;;;;;5058717;28;20041;-85
2020/12/20 09:04:56;;;;;;;30.30;8.65;;;8.40;92.40;;;;;;5060723;28;20115;-85
2020/12/20 09:07:34;;;;;;;20.08;8.88;;;8.50;92.10;;;;;;5056104;28;20465;-86
2020/12/20 09:10:09;;;;;;;26.52;9.75;;;8.50;92.00;;;;;;5061206;28;20028;-84
2020/12/20 09:12:36;;;;;;;23.55;8.20;;;8.50;91.90;;;;;;5056689;28;20024;-86
2020/12/20 09:15:10;;;;;;;26.23;8.38;;;8.50;91.90;;;;;;5058512;28;20044;-86
2020/12/20 09:17:42;;;;;;;23.30;8.50;;;8.50;91.70;;;;;;5062892;28;20111;-85
2020/12/20 09:20:12;;;;;;;26.88;8.18;;;8.50;91.70;;;;;;5064570;28;20024;-86
2020/12/20 09:22:40;;;;;;;23.25;7.53;;;8.50;91.70;;;;;;5063707;28;20036;-86
2020/12/20 09:25:06;;;;;;;23.13;8.27;;;8.50;91.80;;;;;;5060045;28;20021;-86
2020/12/20 09:27:33;;;;;;;21.73;7.57;;;8.60;91.80;;;;;;5061076;28;20043;-84
2020/12/20 09:30:00;;;;;;;26.40;8.65;;;8.70;91.60;;;;;;5057525;28;20390;-85
2020/12/20 09:32:26;;;;;;;27.73;7.82;;;8.80;91.40;;;;;;5068128;28;20181;-84
2020/12/20 09:34:52;;;;;;;23.90;8.18;;;8.90;91.00;;;;;;5060922;28;20050;-84
2020/12/20 09:37:18;;;;;;;30.88;8.25;;;9.00;91.00;;;;;;5059892;28;20036;-84
2020/12/20 09:40:04;;;;;;;20.42;6.43;;;9.10;90.40;;;;;;5059831;28;20862;-83
2020/12/20 09:42:39;;;;;;;21.35;7.78;;;9.20;90.00;;;;;;5077384;28;20112;-83
2020/12/20 09:45:06;;;;;;;25.63;7.55;;;9.20;90.10;;;;;;5052573;28;20031;-76
2020/12/20 09:47:40;;;;;;;22.73;7.30;;;9.30;89.90;;;;;;5063129;28;20044;-74
2020/12/20 09:50:06;;;;;;;22.30;7.38;;;9.30;89.70;;;;;;5064267;28;20037;-75
2020/12/20 09:52:33;;;;;;;21.15;6.70;;;9.40;89.40;;;;;;5063764;28;20024;-74
2020/12/20 09:54:59;;;;;;;22.85;6.85;;;9.60;89.10;;;;;;5065278;28;20492;-75
2020/12/20 09:57:25;;;;;;;20.58;7.28;;;9.60;88.70;;;;;;5056678;28;20028;-75
2020/12/20 09:59:51;;;;;;;25.92;7.47;;;9.60;88.50;;;;;;5065660;28;20040;-75
2020/12/20 10:02:16;;;;;;;22.10;6.72;;;9.70;88.30;;;;;;5058996;28;20037;-74
2020/12/20 10:04:42;;;;;;;25.38;6.97;;;9.80;88.50;;;;;;5062434;28;20037;-76
2020/12/20 10:07:08;;;;;;;23.40;7.18;;;9.80;88.20;;;;;;5062706;28;20111;-76
2020/12/20 10:09:33;;;;;;;20.95;6.75;;;10.00;88.00;;;;;;5061547;28;20394;-76
2020/12/20 10:11:59;;;;;;;27.45;7.38;;;10.10;87.70;;;;;;5059312;28;20500;-76
2020/12/20 10:14:24;;;;;;;26.40;6.45;;;10.10;87.30;;;;;;5062483;28;20032;-76
2020/12/20 10:16:57;;;;;;;25.08;8.00;;;10.10;87.30;;;;;;5066973;28;20039;-76
2020/12/20 10:19:22;;;;;;;25.58;7.53;;;10.10;87.20;;;;;;5058554;28;20029;-76
2020/12/20 10:21:51;;;;;;;28.42;7.82;;;10.30;87.10;;;;;;5065380;28;20036;-76
2020/12/20 10:24:18;;;;;;;33.03;8.15;;;10.40;86.50;;;;;;5059780;28;20087;-78
2020/12/20 10:26:44;;;;;;;22.55;9.27;;;10.40;86.30;;;;;;5063571;28;20053;-77
2020/12/20 10:29:13;;;;;;;26.63;11.13;;;10.50;86.10;;;;;;5062406;28;20039;-77
2020/12/20 10:31:40;;;;;;;24.38;10.73;;;10.60;85.90;;;;;;5063266;28;20041;-77
2020/12/20 10:34:06;;;;;;;22.05;6.82;;;10.60;85.60;;;;;;5061189;28;20395;-78
2020/12/20 10:36:33;;;;;;;19.48;5.72;;;10.60;85.30;;;;;;5064923;28;20033;-77
2020/12/20 10:38:58;;;;;;;23.52;6.13;;;10.60;85.10;;;;;;5061192;28;20033;-77
2020/12/20 10:41:24;;;;;;;21.05;5.93;;;10.70;85.30;;;;;;5058817;28;20032;-77
2020/12/20 10:43:49;;;;;;;22.77;7.88;;;10.70;84.90;;;;;;5059356;28;20032;-77
2020/12/20 10:46:15;;;;;;;24.17;6.30;;;10.60;84.80;;;;;;5062376;28;20032;-77
2020/12/20 10:48:41;;;;;;;19.95;6.82;;;10.60;84.90;;;;;;5061964;28;20506;-76
2020/12/20 10:51:09;;;;;;;23.85;8.65;;;10.60;84.60;;;;;;5058518;28;20037;-78
2020/12/20 10:53:35;;;;;;;31.75;10.70;;;10.60;84.80;;;;;;5060608;28;20098;-78
2020/12/20 10:56:01;;;;;;;23.83;7.22;;;10.50;85.40;;;;;;5060541;28;20040;-78
2020/12/20 10:58:26;;;;;;;21.33;6.20;;;10.60;84.70;;;;;;5062084;28;20033;-77
2020/12/20 11:00:52;;;;;;;29.75;7.40;;;10.60;84.80;;;;;;5060872;28;20036;-78
2020/12/20 11:03:17;;;;;;;22.13;7.68;;;10.50;84.90;;;;;;5061427;28;20033;-78
2020/12/20 11:05:43;;;;;;;22.65;9.88;;;10.50;84.90;;;;;;5063551;28;20043;-78
2020/12/20 11:08:08;;;;;;;31.15;15.85;;;10.60;84.90;;;;;;5064841;28;20043;-78
2020/12/20 11:10:34;;;;;;;23.63;10.63;;;10.70;84.50;;;;;;5065691;28;20035;-78
2020/12/20 11:13:00;;;;;;;36.90;13.68;;;10.80;84.30;;;;;;5060425;28;20029;-78
2020/12/20 11:15:25;;;;;;;37.47;20.30;;;10.70;84.00;;;;;;5062919;28;20036;-77
2020/12/20 11:17:51;;;;;;;30.92;14.50;;;10.80;84.10;;;;;;5060536;28;20490;-77
2020/12/20 11:20:16;;;;;;;30.10;14.60;;;10.80;84.00;;;;;;5066108;28;20517;-76
2020/12/20 11:22:42;;;;;;;32.85;13.88;;;10.90;83.80;;;;;;5068259;28;20032;-76
2020/12/20 11:25:08;;;;;;;30.55;15.68;;;10.90;83.60;;;;;;5063677;28;20036;-75
2020/12/20 11:27:33;;;;;;;20.38;12.40;;;11.10;83.20;;;;;;5067470;28;20497;-78
2020/12/20 11:29:59;;;;;;;25.92;10.15;;;11.00;82.70;;;;;;5063908;28;20037;-76
2020/12/20 11:32:25;;;;;;;38.05;15.63;;;11.00;83.00;;;;;;5054074;28;20586;-76
2020/12/20 11:34:50;;;;;;;20.48;6.80;;;11.00;83.00;;;;;;5064405;28;20029;-76
2020/12/20 11:37:16;;;;;;;22.65;5.65;;;10.80;83.10;;;;;;5068831;28;20031;-76
2020/12/20 11:39:42;;;;;;;21.13;6.10;;;10.70;83.30;;;;;;5064748;28;21514;-76
2020/12/20 11:42:11;;;;;;;16.52;5.28;;;10.70;83.20;;;;;;5061478;28;20494;-76
2020/12/20 11:44:36;;;;;;;18.73;5.32;;;10.70;83.30;;;;;;5057253;28;20044;-75
2020/12/20 11:47:02;;;;;;;22.30;6.07;;;10.60;83.50;;;;;;5043076;28;20037;-75
2020/12/20 11:49:27;;;;;;;17.60;5.20;;;10.60;83.50;;;;;;5044265;28;20044;-76
2020/12/20 11:51:55;;;;;;;22.85;5.57;;;10.50;83.40;;;;;;5043715;28;20033;-75
2020/12/20 11:54:21;;;;;;;21.80;6.07;;;10.50;83.70;;;;;;5051444;28;20042;-75
2020/12/20 11:56:47;;;;;;;23.08;6.22;;;10.50;84.00;;;;;;5036133;28;20145;-75
2020/12/20 11:59:13;;;;;;;22.20;5.80;;;10.50;84.00;;;;;;5044254;28;20486;-76
2020/12/20 12:01:38;;;;;;;19.08;6.13;;;10.50;84.00;;;;;;5037175;28;20124;-75
2020/12/20 12:04:04;;;;;;;21.67;5.80;;;10.50;84.00;;;;;;5034942;28;20052;-76
2020/12/20 12:06:31;;;;;;;20.10;6.18;;;10.50;84.00;;;;;;5042275;28;20384;-76
2020/12/20 12:08:56;;;;;;;18.70;5.90;;;10.60;83.80;;;;;;5035881;28;20531;-76
2020/12/20 12:11:22;;;;;;;21.65;5.93;;;10.50;83.90;;;;;;5037526;28;20428;-76
2020/12/20 12:13:49;;;;;;;20.02;4.72;;;10.50;83.90;;;;;;5040498;28;20044;-76
2020/12/20 12:16:19;;;;;;;22.00;4.97;;;10.50;84.00;;;;;;5042204;28;20039;-76
2020/12/20 12:18:45;;;;;;;17.42;5.05;;;10.60;84.10;;;;;;5041629;28;20110;-76
2020/12/20 12:21:12;;;;;;;21.60;4.90;;;10.50;84.10;;;;;;5039239;28;20164;-75
2020/12/20 12:23:38;;;;;;;19.70;5.30;;;10.50;84.10;;;;;;5038536;28;20043;-75
2020/12/20 12:26:04;;;;;;;23.50;5.97;;;10.50;84.20;;;;;;5043487;28;20044;-75
2020/12/20 12:28:30;;;;;;;22.23;5.20;;;10.50;83.90;;;;;;5039256;28;20037;-75
2020/12/20 12:30:56;;;;;;;17.23;5.15;;;10.50;84.10;;;;;;5058414;28;20086;-76
2020/12/20 12:33:22;;;;;;;15.95;4.97;;;10.50;83.90;;;;;;5065229;28;20032;-76
2020/12/20 12:35:47;;;;;;;27.27;7.43;;;10.50;83.90;;;;;;5063972;28;20090;-76
2020/12/20 12:38:14;;;;;;;33.95;14.07;;;10.50;83.70;;;;;;5049204;28;20048;-77
2020/12/20 12:40:40;;;;;;;17.75;5.53;;;10.50;83.80;;;;;;5064022;28;20139;-75
2020/12/20 12:43:05;;;;;;;23.23;4.88;;;10.50;83.80;;;;;;5064925;28;20154;-75
2020/12/20 12:45:31;;;;;;;21.70;5.30;;;10.50;83.70;;;;;;5061822;28;20379;-75
2020/12/20 12:47:56;;;;;;;19.00;5.20;;;10.50;83.90;;;;;;5068912;28;20035;-75